sensor_id;sensor_type;location;lat;lon;timestamp;temperature;humidity
23609;DHT22;11982;50.810;4.442;2023-08-07T00:00:39;11.50;99.90
23609;DHT22;11982;50.810;4.442;2023-08-07T00:03:04;11.50;99.90
23609;DHT22;11982;50.810;4.442;2023-08-07T00:05:30;11.50;99.90
23609;DHT22;11982;50.810;4.442;2023-08-07T00:07:56;11.50;99.90
23609;DHT22;11982;50.810;4.442;2023-08-07T00:10:22;11.50;99.90
23609;DHT22;11982;50.810;4.442;2023-08-07T00:12:48;11.50;99.90
23609;DHT22;11982;50.810;4.442;2023-08-07T00:15:13;11.50;99.90
23609;DHT22;11982;50.810;4.442;2023-08-07T00:17:39;11.60;99.90
23609;DHT22;11982;50.810;4.442;2023-08-07T00:20:06;11.70;99.90
23609;DHT22;11982;50.810;4.442;2023-08-07T00:22:33;11.70;99.90
23609;DHT22;11982;50.810;4.442;2023-08-07T00:24:59;11.70;99.90
23609;DHT22;11982;50.810;4.442;2023-08-07T00:27:24;11.70;99.90
23609;DHT22;11982;50.810;4.442;2023-08-07T00:29:50;11.70;99.90
23609;DHT22;11982;50.810;4.442;2023-08-07T00:32:16;11.70;99.90
23609;DHT22;11982;50.810;4.442;2023-08-07T00:34:41;11.60;99.90
23609;DHT22;11982;50.810;4.442;2023-08-07T00:37:07;11.60;99.90
23609;DHT22;11982;50.810;4.442;2023-08-07T00:39:33;11.50;99.90
23609;DHT22;11982;50.810;4.442;2023-08-07T00:41:58;11.50;99.90
23609;DHT22;11982;50.810;4.442;2023-08-07T00:44:24;11.50;99.90
23609;DHT22;11982;50.810;4.442;2023-08-07T00:46:50;11.40;99.90
23609;DHT22;11982;50.810;4.442;2023-08-07T00:49:16;11.40;99.90
23609;DHT22;11982;50.810;4.442;2023-08-07T00:51:44;11.40;99.90
23609;DHT22;11982;50.810;4.442;2023-08-07T00:54:11;11.40;99.90
23609;DHT22;11982;50.810;4.442;2023-08-07T00:56:37;11.30;99.90
23609;DHT22;11982;50.810;4.442;2023-08-07T00:59:04;11.30;99.90
23609;DHT22;11982;50.810;4.442;2023-08-07T01:01:30;11.20;99.90
23609;DHT22;11982;50.810;4.442;2023-08-07T01:03:56;11.20;99.90
23609;DHT22;11982;50.810;4.442;2023-08-07T01:06:21;11.20;99.90
23609;DHT22;11982;50.810;4.442;2023-08-07T01:08:47;11.20;99.90
23609;DHT22;11982;50.810;4.442;2023-08-07T01:16:35;11.20;99.90
23609;DHT22;11982;50.810;4.442;2023-08-07T01:19:04;11.10;99.90
23609;DHT22;11982;50.810;4.442;2023-08-07T01:21:33;11.10;99.90
23609;DHT22;11982;50.810;4.442;2023-08-07T01:23:59;11.10;99.90
23609;DHT22;11982;50.810;4.442;2023-08-07T01:26:25;11.10;99.90
23609;DHT22;11982;50.810;4.442;2023-08-07T01:29:09;11.10;99.90
23609;DHT22;11982;50.810;4.442;2023-08-07T01:31:38;11.10;99.90
23609;DHT22;11982;50.810;4.442;2023-08-07T01:34:06;11.10;99.90
23609;DHT22;11982;50.810;4.442;2023-08-07T01:36:34;11.10;99.90
23609;DHT22;11982;50.810;4.442;2023-08-07T01:39:01;11.00;99.90
23609;DHT22;11982;50.810;4.442;2023-08-07T01:41:29;11.00;99.90
23609;DHT22;11982;50.810;4.442;2023-08-07T01:43:55;11.00;99.90
23609;DHT22;11982;50.810;4.442;2023-08-07T01:46:20;11.00;99.90
23609;DHT22;11982;50.810;4.442;2023-08-07T01:48:46;11.00;99.90
23609;DHT22;11982;50.810;4.442;2023-08-07T01:51:12;11.10;99.90
23609;DHT22;11982;50.810;4.442;2023-08-07T01:53:54;11.00;99.90
23609;DHT22;11982;50.810;4.442;2023-08-07T01:56:22;10.90;99.90
23609;DHT22;11982;50.810;4.442;2023-08-07T01:58:47;10.90;99.90
23609;DHT22;11982;50.810;4.442;2023-08-07T02:01:13;11.00;99.90
23609;DHT22;11982;50.810;4.442;2023-08-07T02:03:38;11.00;99.90
23609;DHT22;11982;50.810;4.442;2023-08-07T02:06:04;11.00;99.90
23609;DHT22;11982;50.810;4.442;2023-08-07T02:08:30;10.90;99.90
23609;DHT22;11982;50.810;4.442;2023-08-07T02:10:55;10.90;99.90
23609;DHT22;11982;50.810;4.442;2023-08-07T02:13:21;10.80;99.90
23609;DHT22;11982;50.810;4.442;2023-08-07T02:15:47;10.80;99.90
23609;DHT22;11982;50.810;4.442;2023-08-07T02:18:13;10.80;99.90
23609;DHT22;11982;50.810;4.442;2023-08-07T02:20:38;10.80;99.90
23609;DHT22;11982;50.810;4.442;2023-08-07T02:23:04;10.80;99.90
23609;DHT22;11982;50.810;4.442;2023-08-07T02:25:30;10.80;99.90
23609;DHT22;11982;50.810;4.442;2023-08-07T02:27:55;10.80;99.90
23609;DHT22;11982;50.810;4.442;2023-08-07T02:30:21;10.80;99.90
23609;DHT22;11982;50.810;4.442;2023-08-07T02:32:46;10.80;99.90
23609;DHT22;11982;50.810;4.442;2023-08-07T02:35:12;10.70;99.90
23609;DHT22;11982;50.810;4.442;2023-08-07T02:37:38;10.70;99.90
23609;DHT22;11982;50.810;4.442;2023-08-07T02:40:04;10.80;99.90
23609;DHT22;11982;50.810;4.442;2023-08-07T02:42:30;10.80;99.90
23609;DHT22;11982;50.810;4.442;2023-08-07T02:44:55;10.80;99.90
23609;DHT22;11982;50.810;4.442;2023-08-07T02:47:21;10.70;99.90
23609;DHT22;11982;50.810;4.442;2023-08-07T02:49:47;10.80;99.90
23609;DHT22;11982;50.810;4.442;2023-08-07T02:52:12;10.70;99.90
23609;DHT22;11982;50.810;4.442;2023-08-07T02:54:38;10.70;99.90
23609;DHT22;11982;50.810;4.442;2023-08-07T02:57:04;10.70;99.90
23609;DHT22;11982;50.810;4.442;2023-08-07T02:59:29;10.70;99.90
23609;DHT22;11982;50.810;4.442;2023-08-07T03:01:56;10.70;99.90
23609;DHT22;11982;50.810;4.442;2023-08-07T03:04:21;10.60;99.90
23609;DHT22;11982;50.810;4.442;2023-08-07T03:06:47;10.60;99.90
23609;DHT22;11982;50.810;4.442;2023-08-07T03:09:13;10.70;99.90
23609;DHT22;11982;50.810;4.442;2023-08-07T03:11:38;10.70;99.90
23609;DHT22;11982;50.810;4.442;2023-08-07T03:14:04;10.60;99.90
23609;DHT22;11982;50.810;4.442;2023-08-07T03:16:30;10.60;99.90
23609;DHT22;11982;50.810;4.442;2023-08-07T03:18:56;10.60;99.90
23609;DHT22;11982;50.810;4.442;2023-08-07T03:21:21;10.60;99.90
23609;DHT22;11982;50.810;4.442;2023-08-07T03:23:47;10.50;99.90
23609;DHT22;11982;50.810;4.442;2023-08-07T03:26:13;10.50;99.90
23609;DHT22;11982;50.810;4.442;2023-08-07T03:28:39;10.40;99.90
23609;DHT22;11982;50.810;4.442;2023-08-07T03:31:05;10.50;99.90
23609;DHT22;11982;50.810;4.442;2023-08-07T03:33:30;10.50;99.90
23609;DHT22;11982;50.810;4.442;2023-08-07T03:35:56;10.50;99.90
23609;DHT22;11982;50.810;4.442;2023-08-07T03:38:22;10.40;99.90
23609;DHT22;11982;50.810;4.442;2023-08-07T03:40:48;10.40;99.90
23609;DHT22;11982;50.810;4.442;2023-08-07T03:43:13;10.40;99.90
23609;DHT22;11982;50.810;4.442;2023-08-07T03:45:39;10.40;99.90
23609;DHT22;11982;50.810;4.442;2023-08-07T03:48:05;10.50;99.90
23609;DHT22;11982;50.810;4.442;2023-08-07T03:50:31;10.50;99.90
23609;DHT22;11982;50.810;4.442;2023-08-07T03:53:00;10.50;99.90
23609;DHT22;11982;50.810;4.442;2023-08-07T03:55:26;10.60;99.90
23609;DHT22;11982;50.810;4.442;2023-08-07T03:57:52;10.60;99.90
23609;DHT22;11982;50.810;4.442;2023-08-07T04:00:17;10.70;99.90
23609;DHT22;11982;50.810;4.442;2023-08-07T04:02:44;10.70;99.90
23609;DHT22;11982;50.810;4.442;2023-08-07T04:05:10;10.80;99.90
23609;DHT22;11982;50.810;4.442;2023-08-07T04:07:36;10.80;99.90
23609;DHT22;11982;50.810;4.442;2023-08-07T04:10:01;10.80;99.90
23609;DHT22;11982;50.810;4.442;2023-08-07T04:12:27;10.70;99.90
23609;DHT22;11982;50.810;4.442;2023-08-07T04:14:53;10.70;99.90
23609;DHT22;11982;50.810;4.442;2023-08-07T04:17:19;10.70;99.90
23609;DHT22;11982;50.810;4.442;2023-08-07T04:19:44;10.60;99.90
23609;DHT22;11982;50.810;4.442;2023-08-07T04:22:10;10.70;99.90
23609;DHT22;11982;50.810;4.442;2023-08-07T04:24:36;10.60;99.90
23609;DHT22;11982;50.810;4.442;2023-08-07T04:27:01;10.70;99.90
23609;DHT22;11982;50.810;4.442;2023-08-07T04:29:27;10.70;99.90
23609;DHT22;11982;50.810;4.442;2023-08-07T04:31:53;10.70;99.90
23609;DHT22;11982;50.810;4.442;2023-08-07T04:34:18;10.70;99.90
23609;DHT22;11982;50.810;4.442;2023-08-07T04:36:44;10.70;99.90
23609;DHT22;11982;50.810;4.442;2023-08-07T04:39:10;10.80;99.90
23609;DHT22;11982;50.810;4.442;2023-08-07T04:41:37;10.70;99.90
23609;DHT22;11982;50.810;4.442;2023-08-07T04:44:02;10.80;99.90
23609;DHT22;11982;50.810;4.442;2023-08-07T04:46:28;10.80;99.90
23609;DHT22;11982;50.810;4.442;2023-08-07T04:48:54;10.80;99.90
23609;DHT22;11982;50.810;4.442;2023-08-07T04:51:20;10.80;99.90
23609;DHT22;11982;50.810;4.442;2023-08-07T04:53:45;10.80;99.90
23609;DHT22;11982;50.810;4.442;2023-08-07T04:56:11;10.80;99.90
23609;DHT22;11982;50.810;4.442;2023-08-07T04:58:37;10.80;99.90
23609;DHT22;11982;50.810;4.442;2023-08-07T05:01:02;10.80;99.90
23609;DHT22;11982;50.810;4.442;2023-08-07T05:03:28;10.80;99.90
23609;DHT22;11982;50.810;4.442;2023-08-07T05:05:59;10.90;99.90
23609;DHT22;11982;50.810;4.442;2023-08-07T05:08:25;11.00;99.90
23609;DHT22;11982;50.810;4.442;2023-08-07T05:10:51;11.10;99.90
23609;DHT22;11982;50.810;4.442;2023-08-07T05:13:17;11.00;99.90
23609;DHT22;11982;50.810;4.442;2023-08-07T05:15:42;11.10;99.90
23609;DHT22;11982;50.810;4.442;2023-08-07T05:18:08;11.20;99.90
23609;DHT22;11982;50.810;4.442;2023-08-07T05:20:34;11.20;99.90
23609;DHT22;11982;50.810;4.442;2023-08-07T05:22:59;11.30;99.90
23609;DHT22;11982;50.810;4.442;2023-08-07T05:25:26;11.30;99.90
23609;DHT22;11982;50.810;4.442;2023-08-07T05:27:51;11.40;99.90
23609;DHT22;11982;50.810;4.442;2023-08-07T05:30:17;11.50;99.90
23609;DHT22;11982;50.810;4.442;2023-08-07T05:32:43;11.60;99.90
23609;DHT22;11982;50.810;4.442;2023-08-07T05:35:09;11.70;99.90
23609;DHT22;11982;50.810;4.442;2023-08-07T05:37:35;11.80;99.90
23609;DHT22;11982;50.810;4.442;2023-08-07T05:40:04;11.90;99.90
23609;DHT22;11982;50.810;4.442;2023-08-07T05:42:30;12.10;99.90
23609;DHT22;11982;50.810;4.442;2023-08-07T05:44:56;12.10;99.90
23609;DHT22;11982;50.810;4.442;2023-08-07T05:47:25;12.10;99.90
23609;DHT22;11982;50.810;4.442;2023-08-07T05:49:50;12.20;99.90
23609;DHT22;11982;50.810;4.442;2023-08-07T05:52:17;12.20;99.90
23609;DHT22;11982;50.810;4.442;2023-08-07T05:54:43;12.30;99.90
23609;DHT22;11982;50.810;4.442;2023-08-07T05:57:10;12.30;99.90
23609;DHT22;11982;50.810;4.442;2023-08-07T05:59:36;12.40;99.90
23609;DHT22;11982;50.810;4.442;2023-08-07T06:05:15;12.60;99.90
23609;DHT22;11982;50.810;4.442;2023-08-07T06:07:41;12.60;99.90
23609;DHT22;11982;50.810;4.442;2023-08-07T06:10:07;12.70;99.90
23609;DHT22;11982;50.810;4.442;2023-08-07T06:12:33;12.80;99.90
23609;DHT22;11982;50.810;4.442;2023-08-07T06:14:59;12.80;99.90
23609;DHT22;11982;50.810;4.442;2023-08-07T06:17:25;12.90;99.90
23609;DHT22;11982;50.810;4.442;2023-08-07T06:19:51;13.00;99.90
23609;DHT22;11982;50.810;4.442;2023-08-07T06:22:17;13.10;99.90
23609;DHT22;11982;50.810;4.442;2023-08-07T06:24:43;13.20;99.90
23609;DHT22;11982;50.810;4.442;2023-08-07T06:27:08;13.30;99.90
23609;DHT22;11982;50.810;4.442;2023-08-07T06:29:34;13.50;99.90
23609;DHT22;11982;50.810;4.442;2023-08-07T06:32:00;13.60;99.90
23609;DHT22;11982;50.810;4.442;2023-08-07T06:34:25;13.60;99.90
23609;DHT22;11982;50.810;4.442;2023-08-07T06:36:51;13.70;99.90
23609;DHT22;11982;50.810;4.442;2023-08-07T06:39:17;13.80;99.90
23609;DHT22;11982;50.810;4.442;2023-08-07T06:41:43;13.80;99.90
23609;DHT22;11982;50.810;4.442;2023-08-07T06:47:19;13.90;99.90
23609;DHT22;11982;50.810;4.442;2023-08-07T06:50:03;13.90;99.90
23609;DHT22;11982;50.810;4.442;2023-08-07T06:52:29;14.00;99.90
23609;DHT22;11982;50.810;4.442;2023-08-07T06:54:54;14.10;99.90
23609;DHT22;11982;50.810;4.442;2023-08-07T06:57:20;14.20;99.90
23609;DHT22;11982;50.810;4.442;2023-08-07T06:59:46;14.20;99.90
23609;DHT22;11982;50.810;4.442;2023-08-07T07:02:12;14.30;99.90
23609;DHT22;11982;50.810;4.442;2023-08-07T07:07:50;14.40;99.90
23609;DHT22;11982;50.810;4.442;2023-08-07T07:10:15;14.50;99.90
23609;DHT22;11982;50.810;4.442;2023-08-07T07:12:41;14.50;99.90
23609;DHT22;11982;50.810;4.442;2023-08-07T07:15:07;14.50;99.90
23609;DHT22;11982;50.810;4.442;2023-08-07T07:17:34;14.60;99.90
23609;DHT22;11982;50.810;4.442;2023-08-07T07:20:00;14.60;99.90
23609;DHT22;11982;50.810;4.442;2023-08-07T07:22:26;14.70;99.90
23609;DHT22;11982;50.810;4.442;2023-08-07T07:24:51;14.70;99.90
23609;DHT22;11982;50.810;4.442;2023-08-07T07:27:17;14.80;99.90
23609;DHT22;11982;50.810;4.442;2023-08-07T07:29:43;14.90;99.90
23609;DHT22;11982;50.810;4.442;2023-08-07T07:32:08;15.00;99.90
23609;DHT22;11982;50.810;4.442;2023-08-07T07:34:34;15.00;99.90
23609;DHT22;11982;50.810;4.442;2023-08-07T07:37:00;15.00;99.90
23609;DHT22;11982;50.810;4.442;2023-08-07T07:39:25;15.10;99.90
23609;DHT22;11982;50.810;4.442;2023-08-07T07:41:51;15.20;99.90
23609;DHT22;11982;50.810;4.442;2023-08-07T07:44:17;15.30;99.90
23609;DHT22;11982;50.810;4.442;2023-08-07T07:46:42;15.30;99.90
23609;DHT22;11982;50.810;4.442;2023-08-07T07:49:08;15.40;99.90
23609;DHT22;11982;50.810;4.442;2023-08-07T07:51:34;15.60;99.90
23609;DHT22;11982;50.810;4.442;2023-08-07T07:54:00;15.70;99.90
23609;DHT22;11982;50.810;4.442;2023-08-07T07:56:26;15.90;99.90
23609;DHT22;11982;50.810;4.442;2023-08-07T07:58:52;16.20;99.90
23609;DHT22;11982;50.810;4.442;2023-08-07T08:01:18;16.20;99.90
23609;DHT22;11982;50.810;4.442;2023-08-07T08:03:43;16.00;99.90
23609;DHT22;11982;50.810;4.442;2023-08-07T08:06:11;16.10;99.90
23609;DHT22;11982;50.810;4.442;2023-08-07T08:08:37;16.30;99.90
23609;DHT22;11982;50.810;4.442;2023-08-07T08:11:03;16.60;99.90
23609;DHT22;11982;50.810;4.442;2023-08-07T08:13:29;16.60;99.90
23609;DHT22;11982;50.810;4.442;2023-08-07T08:15:55;16.60;99.90
23609;DHT22;11982;50.810;4.442;2023-08-07T08:18:21;16.50;99.90
23609;DHT22;11982;50.810;4.442;2023-08-07T08:20:46;16.60;99.90
23609;DHT22;11982;50.810;4.442;2023-08-07T08:23:12;16.60;99.90
23609;DHT22;11982;50.810;4.442;2023-08-07T08:25:38;16.80;99.90
23609;DHT22;11982;50.810;4.442;2023-08-07T08:28:04;16.90;99.90
23609;DHT22;11982;50.810;4.442;2023-08-07T08:30:29;17.00;99.90
23609;DHT22;11982;50.810;4.442;2023-08-07T08:32:55;17.30;99.90
23609;DHT22;11982;50.810;4.442;2023-08-07T08:35:21;17.30;99.90
23609;DHT22;11982;50.810;4.442;2023-08-07T08:37:47;17.00;99.90
23609;DHT22;11982;50.810;4.442;2023-08-07T08:40:13;17.20;99.90
23609;DHT22;11982;50.810;4.442;2023-08-07T08:42:43;17.30;99.90
23609;DHT22;11982;50.810;4.442;2023-08-07T08:45:15;17.40;99.90
23609;DHT22;11982;50.810;4.442;2023-08-07T08:47:42;17.60;99.90
23609;DHT22;11982;50.810;4.442;2023-08-07T08:50:11;17.60;99.90
23609;DHT22;11982;50.810;4.442;2023-08-07T08:52:40;17.50;99.90
23609;DHT22;11982;50.810;4.442;2023-08-07T08:55:07;17.30;99.90
23609;DHT22;11982;50.810;4.442;2023-08-07T08:57:34;17.20;99.90
23609;DHT22;11982;50.810;4.442;2023-08-07T09:00:01;17.30;99.90
23609;DHT22;11982;50.810;4.442;2023-08-07T09:02:32;17.60;99.90
23609;DHT22;11982;50.810;4.442;2023-08-07T09:04:58;17.90;99.90
23609;DHT22;11982;50.810;4.442;2023-08-07T09:07:24;17.70;99.90
23609;DHT22;11982;50.810;4.442;2023-08-07T09:09:52;17.70;99.90
23609;DHT22;11982;50.810;4.442;2023-08-07T09:12:26;17.70;99.90
23609;DHT22;11982;50.810;4.442;2023-08-07T09:14:58;17.70;99.90
23609;DHT22;11982;50.810;4.442;2023-08-07T09:17:29;17.60;99.90
23609;DHT22;11982;50.810;4.442;2023-08-07T09:19:59;17.90;99.90
23609;DHT22;11982;50.810;4.442;2023-08-07T09:22:28;18.10;99.90
23609;DHT22;11982;50.810;4.442;2023-08-07T09:24:54;17.90;99.90
23609;DHT22;11982;50.810;4.442;2023-08-07T09:27:21;17.90;99.90
23609;DHT22;11982;50.810;4.442;2023-08-07T09:29:46;17.80;99.90
23609;DHT22;11982;50.810;4.442;2023-08-07T09:32:13;17.80;99.90
23609;DHT22;11982;50.810;4.442;2023-08-07T09:34:42;17.90;99.90
23609;DHT22;11982;50.810;4.442;2023-08-07T09:37:08;17.90;99.90
23609;DHT22;11982;50.810;4.442;2023-08-07T09:39:35;17.90;99.90
23609;DHT22;11982;50.810;4.442;2023-08-07T09:42:04;18.10;99.90
23609;DHT22;11982;50.810;4.442;2023-08-07T09:44:37;18.30;99.90
23609;DHT22;11982;50.810;4.442;2023-08-07T09:47:13;18.20;99.90
23609;DHT22;11982;50.810;4.442;2023-08-07T09:49:42;18.10;99.90
23609;DHT22;11982;50.810;4.442;2023-08-07T09:52:09;17.90;99.90
23609;DHT22;11982;50.810;4.442;2023-08-07T09:54:36;17.70;99.90
23609;DHT22;11982;50.810;4.442;2023-08-07T09:57:03;17.90;99.90
23609;DHT22;11982;50.810;4.442;2023-08-07T09:59:29;18.20;99.90
23609;DHT22;11982;50.810;4.442;2023-08-07T10:01:55;18.40;99.90
23609;DHT22;11982;50.810;4.442;2023-08-07T10:04:23;18.20;99.90
23609;DHT22;11982;50.810;4.442;2023-08-07T10:06:51;18.20;99.90
23609;DHT22;11982;50.810;4.442;2023-08-07T10:09:16;18.30;99.90
23609;DHT22;11982;50.810;4.442;2023-08-07T10:11:42;18.40;99.90
23609;DHT22;11982;50.810;4.442;2023-08-07T10:14:09;18.60;99.90
23609;DHT22;11982;50.810;4.442;2023-08-07T10:16:34;18.70;99.90
23609;DHT22;11982;50.810;4.442;2023-08-07T10:19:05;19.10;99.90
23609;DHT22;11982;50.810;4.442;2023-08-07T10:21:35;19.10;99.90
23609;DHT22;11982;50.810;4.442;2023-08-07T10:24:06;18.90;99.90
23609;DHT22;11982;50.810;4.442;2023-08-07T10:26:34;18.80;99.90
23609;DHT22;11982;50.810;4.442;2023-08-07T10:29:02;18.70;99.90
23609;DHT22;11982;50.810;4.442;2023-08-07T10:31:30;18.50;99.90
23609;DHT22;11982;50.810;4.442;2023-08-07T10:33:57;18.40;99.90
23609;DHT22;11982;50.810;4.442;2023-08-07T10:36:23;18.50;99.90
23609;DHT22;11982;50.810;4.442;2023-08-07T10:39:08;18.50;99.90
23609;DHT22;11982;50.810;4.442;2023-08-07T10:41:44;18.60;99.90
23609;DHT22;11982;50.810;4.442;2023-08-07T10:44:21;18.60;99.90
23609;DHT22;11982;50.810;4.442;2023-08-07T10:46:57;18.90;99.90
23609;DHT22;11982;50.810;4.442;2023-08-07T10:49:36;19.20;99.90
23609;DHT22;11982;50.810;4.442;2023-08-07T10:52:09;19.40;99.90
23609;DHT22;11982;50.810;4.442;2023-08-07T10:54:54;19.40;99.90
23609;DHT22;11982;50.810;4.442;2023-08-07T10:57:20;19.50;99.90
23609;DHT22;11982;50.810;4.442;2023-08-07T11:02:25;20.00;99.90
23609;DHT22;11982;50.810;4.442;2023-08-07T11:04:53;19.90;99.90
23609;DHT22;11982;50.810;4.442;2023-08-07T11:07:30;19.70;99.90
23609;DHT22;11982;50.810;4.442;2023-08-07T11:09:57;19.40;99.90
23609;DHT22;11982;50.810;4.442;2023-08-07T11:12:27;19.20;99.90
23609;DHT22;11982;50.810;4.442;2023-08-07T11:14:54;19.10;99.90
23609;DHT22;11982;50.810;4.442;2023-08-07T11:17:26;19.20;99.90
23609;DHT22;11982;50.810;4.442;2023-08-07T11:19:53;19.50;99.90
23609;DHT22;11982;50.810;4.442;2023-08-07T11:22:19;19.80;99.90
23609;DHT22;11982;50.810;4.442;2023-08-07T11:24:46;19.70;99.90
23609;DHT22;11982;50.810;4.442;2023-08-07T11:27:12;19.70;99.90
23609;DHT22;11982;50.810;4.442;2023-08-07T11:29:37;19.80;99.90
23609;DHT22;11982;50.810;4.442;2023-08-07T11:32:03;20.20;99.90
23609;DHT22;11982;50.810;4.442;2023-08-07T11:34:29;20.30;99.90
23609;DHT22;11982;50.810;4.442;2023-08-07T11:36:55;20.20;99.90
23609;DHT22;11982;50.810;4.442;2023-08-07T11:39:23;20.10;99.90
23609;DHT22;11982;50.810;4.442;2023-08-07T11:41:52;19.90;99.90
23609;DHT22;11982;50.810;4.442;2023-08-07T11:44:18;19.80;99.90
23609;DHT22;11982;50.810;4.442;2023-08-07T11:46:44;19.90;99.90
23609;DHT22;11982;50.810;4.442;2023-08-07T11:49:10;19.80;99.90
23609;DHT22;11982;50.810;4.442;2023-08-07T11:51:37;20.10;99.90
23609;DHT22;11982;50.810;4.442;2023-08-07T11:54:03;20.70;99.90
23609;DHT22;11982;50.810;4.442;2023-08-07T11:56:29;21.10;99.90
23609;DHT22;11982;50.810;4.442;2023-08-07T11:58:57;20.90;99.90
23609;DHT22;11982;50.810;4.442;2023-08-07T12:01:25;20.10;99.90
23609;DHT22;11982;50.810;4.442;2023-08-07T12:03:55;20.00;99.90
23609;DHT22;11982;50.810;4.442;2023-08-07T12:06:25;20.00;99.90
23609;DHT22;11982;50.810;4.442;2023-08-07T12:08:55;19.70;99.90
23609;DHT22;11982;50.810;4.442;2023-08-07T12:11:21;20.00;99.90
23609;DHT22;11982;50.810;4.442;2023-08-07T12:13:47;20.20;99.90
23609;DHT22;11982;50.810;4.442;2023-08-07T12:16:14;20.20;99.90
23609;DHT22;11982;50.810;4.442;2023-08-07T12:18:52;20.30;99.90
23609;DHT22;11982;50.810;4.442;2023-08-07T12:21:20;20.00;99.90
23609;DHT22;11982;50.810;4.442;2023-08-07T12:23:49;19.90;99.90
23609;DHT22;11982;50.810;4.442;2023-08-07T12:26:16;20.20;99.90
23609;DHT22;11982;50.810;4.442;2023-08-07T12:28:42;20.50;99.90
23609;DHT22;11982;50.810;4.442;2023-08-07T12:31:08;20.20;99.90
23609;DHT22;11982;50.810;4.442;2023-08-07T12:33:34;20.00;99.90
23609;DHT22;11982;50.810;4.442;2023-08-07T12:36:00;20.20;99.90
23609;DHT22;11982;50.810;4.442;2023-08-07T12:38:26;20.20;99.90
23609;DHT22;11982;50.810;4.442;2023-08-07T12:40:52;20.10;99.90
23609;DHT22;11982;50.810;4.442;2023-08-07T12:43:18;20.30;99.90
23609;DHT22;11982;50.810;4.442;2023-08-07T12:45:44;20.70;99.90
23609;DHT22;11982;50.810;4.442;2023-08-07T12:48:09;21.20;99.90
23609;DHT22;11982;50.810;4.442;2023-08-07T12:50:35;21.00;99.90
23609;DHT22;11982;50.810;4.442;2023-08-07T12:53:01;21.20;99.90
23609;DHT22;11982;50.810;4.442;2023-08-07T12:55:28;20.70;99.90
23609;DHT22;11982;50.810;4.442;2023-08-07T12:57:54;20.50;99.90
23609;DHT22;11982;50.810;4.442;2023-08-07T13:00:20;20.80;99.90
23609;DHT22;11982;50.810;4.442;2023-08-07T13:02:48;20.60;99.90
23609;DHT22;11982;50.810;4.442;2023-08-07T13:05:15;20.60;99.90
23609;DHT22;11982;50.810;4.442;2023-08-07T13:07:42;20.60;99.90
23609;DHT22;11982;50.810;4.442;2023-08-07T13:10:10;20.30;99.90
23609;DHT22;11982;50.810;4.442;2023-08-07T13:12:38;20.10;99.90
23609;DHT22;11982;50.810;4.442;2023-08-07T13:15:05;20.10;99.90
23609;DHT22;11982;50.810;4.442;2023-08-07T13:17:31;20.20;99.90
23609;DHT22;11982;50.810;4.442;2023-08-07T13:19:58;20.20;99.90
23609;DHT22;11982;50.810;4.442;2023-08-07T13:22:24;20.20;99.90
23609;DHT22;11982;50.810;4.442;2023-08-07T13:24:50;20.20;99.90
23609;DHT22;11982;50.810;4.442;2023-08-07T13:27:16;20.20;99.90
23609;DHT22;11982;50.810;4.442;2023-08-07T13:29:41;20.30;99.90
23609;DHT22;11982;50.810;4.442;2023-08-07T13:32:07;20.80;99.90
23609;DHT22;11982;50.810;4.442;2023-08-07T13:34:36;21.30;99.90
23609;DHT22;11982;50.810;4.442;2023-08-07T13:37:06;21.40;99.90
23609;DHT22;11982;50.810;4.442;2023-08-07T13:39:32;21.60;99.90
23609;DHT22;11982;50.810;4.442;2023-08-07T13:41:58;21.20;99.90
23609;DHT22;11982;50.810;4.442;2023-08-07T13:44:25;20.90;99.90
23609;DHT22;11982;50.810;4.442;2023-08-07T13:46:51;20.60;99.90
23609;DHT22;11982;50.810;4.442;2023-08-07T13:49:17;20.60;99.90
23609;DHT22;11982;50.810;4.442;2023-08-07T13:51:43;20.30;99.90
23609;DHT22;11982;50.810;4.442;2023-08-07T13:54:09;21.00;99.90
23609;DHT22;11982;50.810;4.442;2023-08-07T13:56:34;21.70;99.90
23609;DHT22;11982;50.810;4.442;2023-08-07T13:59:00;21.50;99.90
23609;DHT22;11982;50.810;4.442;2023-08-07T14:01:26;21.60;99.90
23609;DHT22;11982;50.810;4.442;2023-08-07T14:03:53;21.70;99.90
23609;DHT22;11982;50.810;4.442;2023-08-07T14:06:19;21.50;99.90
23609;DHT22;11982;50.810;4.442;2023-08-07T14:08:45;21.00;99.90
23609;DHT22;11982;50.810;4.442;2023-08-07T14:11:11;20.70;99.90
23609;DHT22;11982;50.810;4.442;2023-08-07T14:13:39;20.90;99.90
23609;DHT22;11982;50.810;4.442;2023-08-07T14:16:04;20.70;99.90
23609;DHT22;11982;50.810;4.442;2023-08-07T14:18:30;21.00;99.90
23609;DHT22;11982;50.810;4.442;2023-08-07T14:20:56;21.50;99.90
23609;DHT22;11982;50.810;4.442;2023-08-07T14:23:21;21.60;99.90
23609;DHT22;11982;50.810;4.442;2023-08-07T14:25:47;21.50;99.90
23609;DHT22;11982;50.810;4.442;2023-08-07T14:28:16;21.20;99.90
23609;DHT22;11982;50.810;4.442;2023-08-07T14:30:42;21.00;99.90
23609;DHT22;11982;50.810;4.442;2023-08-07T14:33:08;21.30;99.90
23609;DHT22;11982;50.810;4.442;2023-08-07T14:35:33;21.80;99.90
23609;DHT22;11982;50.810;4.442;2023-08-07T14:37:59;22.20;99.90
23609;DHT22;11982;50.810;4.442;2023-08-07T14:40:25;22.10;99.90
23609;DHT22;11982;50.810;4.442;2023-08-07T14:42:51;22.30;99.90
23609;DHT22;11982;50.810;4.442;2023-08-07T14:45:17;22.40;99.90
23609;DHT22;11982;50.810;4.442;2023-08-07T14:47:43;22.10;99.90
23609;DHT22;11982;50.810;4.442;2023-08-07T14:50:09;21.90;99.90
23609;DHT22;11982;50.810;4.442;2023-08-07T14:52:36;21.60;99.90
23609;DHT22;11982;50.810;4.442;2023-08-07T14:55:01;21.80;99.90
23609;DHT22;11982;50.810;4.442;2023-08-07T14:57:42;21.70;99.90
23609;DHT22;11982;50.810;4.442;2023-08-07T15:00:17;20.90;99.90
23609;DHT22;11982;50.810;4.442;2023-08-07T15:02:43;20.70;99.90
23609;DHT22;11982;50.810;4.442;2023-08-07T15:05:09;20.60;99.90
23609;DHT22;11982;50.810;4.442;2023-08-07T15:07:35;21.20;99.90
23609;DHT22;11982;50.810;4.442;2023-08-07T15:10:00;20.90;99.90
23609;DHT22;11982;50.810;4.442;2023-08-07T15:12:26;20.60;99.90
23609;DHT22;11982;50.810;4.442;2023-08-07T15:14:52;20.60;99.90
23609;DHT22;11982;50.810;4.442;2023-08-07T15:17:17;21.00;99.90
23609;DHT22;11982;50.810;4.442;2023-08-07T15:19:43;21.00;99.90
23609;DHT22;11982;50.810;4.442;2023-08-07T15:22:09;20.70;99.90
23609;DHT22;11982;50.810;4.442;2023-08-07T15:24:34;20.70;99.90
23609;DHT22;11982;50.810;4.442;2023-08-07T15:27:00;20.60;99.90
23609;DHT22;11982;50.810;4.442;2023-08-07T15:29:26;20.70;99.90
23609;DHT22;11982;50.810;4.442;2023-08-07T15:31:54;20.80;99.90
23609;DHT22;11982;50.810;4.442;2023-08-07T15:34:30;21.00;99.90
23609;DHT22;11982;50.810;4.442;2023-08-07T15:36:59;20.70;99.90
23609;DHT22;11982;50.810;4.442;2023-08-07T15:39:25;20.80;99.90
23609;DHT22;11982;50.810;4.442;2023-08-07T15:42:08;20.80;99.90
23609;DHT22;11982;50.810;4.442;2023-08-07T15:44:34;21.00;99.90